createdAt,value
2022-09-18T00:02:42.996Z,34.79387
2022-09-18T00:07:43.961Z,34.62001
2022-09-18T00:12:45.009Z,34.56545
2022-09-18T00:17:45.924Z,34.82771
2022-09-18T00:22:46.974Z,35.0539
2022-09-18T00:28:04.800Z,35.37312
2022-09-18T00:33:05.741Z,35.34712
2022-09-18T00:38:06.688Z,35.78011
2022-09-18T00:43:07.563Z,36.124
2022-09-18T00:48:08.515Z,36.28943
2022-09-18T00:53:09.402Z,36.4322
2022-09-18T00:58:10.354Z,36.71695
2022-09-18T01:03:11.337Z,36.87009
2022-09-18T01:08:12.365Z,36.98924
2022-09-18T01:13:13.420Z,37.04294
2022-09-18T01:18:14.347Z,37.10255
2022-09-18T01:23:15.311Z,37.17422
2022-09-18T01:28:16.268Z,37.15689
2022-09-18T01:33:17.215Z,37.16256
2022-09-18T01:38:18.171Z,37.04398
2022-09-18T01:43:19.093Z,36.8658
2022-09-18T01:48:20.017Z,36.8375
2022-09-18T01:53:20.941Z,36.8914
2022-09-18T02:04:02.385Z,36.63681
2022-09-18T02:09:03.386Z,36.68482
2022-09-18T02:14:04.491Z,36.80889
2022-09-18T02:19:05.887Z,36.64894
2022-09-18T02:24:06.851Z,36.75613
2022-09-18T02:29:07.731Z,36.94561
2022-09-18T02:34:08.858Z,36.93401
2022-09-18T02:39:09.899Z,37.11756
2022-09-18T02:44:10.858Z,37.12904
2022-09-18T02:49:11.830Z,37.16992
2022-09-18T02:54:12.712Z,37.21106
2022-09-18T02:59:13.629Z,37.35373
2022-09-18T03:04:14.579Z,37.54172
2022-09-18T03:09:15.594Z,37.57101
2022-09-18T03:14:16.572Z,37.46496
2022-09-18T03:19:17.475Z,37.33472
2022-09-18T03:24:18.394Z,37.40012
2022-09-18T03:29:19.334Z,37.50576
2022-09-18T03:34:20.307Z,37.38882
2022-09-18T03:39:21.497Z,37.39435
2022-09-18T03:44:22.433Z,37.18813
2022-09-18T03:49:23.342Z,37.20046
2022-09-18T03:54:24.248Z,37.03668
2022-09-18T03:59:25.146Z,37.19058
2022-09-18T04:04:26.061Z,37.13205
2022-09-18T04:09:27.256Z,37.1799
2022-09-18T04:14:30.082Z,37.16791
2022-09-18T04:19:31.504Z,37.01996
2022-09-18T04:24:32.398Z,36.95489
2022-09-18T04:29:33.520Z,36.7198
2022-09-18T04:34:34.536Z,36.95043
2022-09-18T04:39:35.470Z,36.89198
2022-09-18T04:44:36.396Z,36.94007
2022-09-18T04:49:37.346Z,36.96419
2022-09-18T04:54:38.263Z,36.67549
2022-09-18T04:59:39.169Z,36.82235
2022-09-18T05:04:41.725Z,36.72888
2022-09-18T05:09:42.691Z,36.41098
2022-09-18T05:14:43.603Z,36.15611
2022-09-18T05:19:44.532Z,36.23463
2022-09-18T05:24:45.502Z,36.03287
2022-09-18T05:29:46.450Z,35.76278
2022-09-18T05:34:47.386Z,35.99445
2022-09-18T05:39:48.338Z,36.09527
2022-09-18T05:44:49.294Z,36.11307
2022-09-18T05:49:50.301Z,35.99488
2022-09-18T05:54:51.406Z,35.93086
2022-09-18T05:59:52.713Z,35.78923
2022-09-18T06:04:53.666Z,35.71334
2022-09-18T06:09:54.710Z,35.59689
2022-09-18T06:14:55.628Z,35.49031
2022-09-18T06:19:56.572Z,35.30341
2022-09-18T06:24:57.524Z,35.39114
2022-09-18T06:29:58.538Z,35.2325
2022-09-18T06:34:59.501Z,35.29579
2022-09-18T06:40:00.608Z,34.98496
2022-09-18T06:45:01.648Z,35.01987
2022-09-18T06:50:02.601Z,34.88865
2022-09-18T06:55:03.628Z,34.78699
2022-09-18T07:00:05.010Z,34.34369
2022-09-18T07:05:06.186Z,34.18644
2022-09-18T07:10:09.217Z,31.68215
2022-09-18T07:15:10.327Z,32.37454
2022-09-18T07:20:11.340Z,32.70786
2022-09-18T07:25:12.273Z,32.53887
2022-09-18T07:30:13.252Z,31.82226
2022-09-18T07:35:14.180Z,32.45434
2022-09-18T07:40:15.225Z,32.36023
2022-09-18T07:45:16.173Z,32.36314
2022-09-18T07:50:17.218Z,32.00042
2022-09-18T07:55:18.144Z,31.70787
2022-09-18T08:00:19.097Z,31.45219
2022-09-18T08:05:20.119Z,31.20099
2022-09-18T08:10:21.143Z,30.99966
2022-09-18T08:15:22.068Z,30.88929
2022-09-18T08:20:22.968Z,30.58186
2022-09-18T08:25:23.958Z,30.41101
2022-09-18T08:30:24.896Z,30.1965
2022-09-18T08:35:25.807Z,30.32935
2022-09-18T08:40:27.455Z,30.27032
2022-09-18T08:45:28.444Z,29.91661
2022-09-18T08:50:29.380Z,29.84176
2022-09-18T08:55:30.359Z,29.46032
2022-09-18T09:00:31.426Z,29.61063
2022-09-18T09:05:32.436Z,28.91022
2022-09-18T09:10:33.425Z,28.70311
2022-09-18T09:15:34.324Z,29.00193
2022-09-18T09:20:35.368Z,28.43425
2022-09-18T09:25:36.279Z,28.41764
2022-09-18T09:30:37.200Z,27.46705
2022-09-18T09:40:38.685Z,27.30941
2022-09-18T09:45:39.689Z,26.58959
2022-09-18T09:50:40.617Z,26.74002
2022-09-18T09:55:41.524Z,26.07768
2022-09-18T10:00:42.514Z,26.58379
2022-09-18T10:05:43.447Z,26.60171
2022-09-18T10:10:44.397Z,26.74354
2022-09-18T10:15:45.454Z,26.85692
2022-09-18T10:20:46.349Z,26.94551
2022-09-18T10:25:47.451Z,27.62951
2022-09-18T10:30:48.458Z,28.11029
2022-09-18T10:35:49.456Z,27.85493
2022-09-18T10:40:50.417Z,27.29155
2022-09-18T10:45:51.300Z,26.82649
2022-09-18T10:50:52.276Z,26.41539
2022-09-18T10:55:55.969Z,26.4617
2022-09-18T11:00:57.274Z,26.56622
2022-09-18T11:05:58.318Z,26.30052
2022-09-18T11:10:59.324Z,26.00465
2022-09-18T11:16:00.298Z,25.37615
2022-09-18T11:21:01.568Z,24.81625
2022-09-18T11:26:02.503Z,24.05312
2022-09-18T11:31:03.732Z,23.99772
2022-09-18T11:36:04.785Z,23.64373
2022-09-18T11:41:05.708Z,24.10653
2022-09-18T11:46:06.705Z,25.31078
2022-09-18T11:51:07.613Z,25.58723
2022-09-18T11:56:08.524Z,26.05011
2022-09-18T12:01:09.495Z,26.26481
2022-09-18T12:06:10.476Z,26.42556
2022-09-18T12:11:10.077Z,26.27209
2022-09-18T12:16:11.038Z,25.6569
2022-09-18T12:21:11.979Z,25.66136
2022-09-18T12:26:12.947Z,24.97397
2022-09-18T12:31:13.943Z,25.22866
2022-09-18T12:36:14.923Z,24.74835
2022-09-18T12:41:16.522Z,24.80407
2022-09-18T12:46:17.449Z,24.90641
2022-09-18T12:51:18.432Z,25.29117
2022-09-18T12:56:19.463Z,25.14326
2022-09-18T13:01:20.654Z,24.46835
2022-09-18T13:06:21.687Z,24.16581
2022-09-18T13:11:22.690Z,23.27592
2022-09-18T13:16:24.351Z,22.84868
2022-09-18T13:21:25.354Z,22.9446
2022-09-18T13:26:26.277Z,23.69452
2022-09-18T13:31:27.787Z,24.0974
2022-09-18T13:36:29.065Z,24.06425
2022-09-18T13:41:30.009Z,23.37907
2022-09-18T13:46:31.042Z,24.09696
2022-09-18T13:51:32.049Z,23.88628
2022-09-18T13:56:32.941Z,24.13213
2022-09-18T14:01:33.951Z,24.02811
2022-09-18T14:06:34.930Z,23.75448
2022-09-18T14:11:35.891Z,24.04157
2022-09-18T14:16:36.911Z,24.11527
2022-09-18T14:21:37.878Z,24.30881
2022-09-18T14:26:38.821Z,24.54004
2022-09-18T14:31:39.992Z,24.7997
2022-09-18T14:36:40.998Z,25.10817
2022-09-18T14:41:41.983Z,25.63229
2022-09-18T14:46:43.016Z,26.00766
2022-09-18T14:52:02.618Z,26.36653
2022-09-18T14:57:04.838Z,26.64682
2022-09-18T15:02:05.715Z,26.91083
2022-09-18T15:07:06.645Z,27.04218
2022-09-18T15:12:07.661Z,27.24513
2022-09-18T15:17:08.584Z,27.21493
2022-09-18T15:22:09.518Z,27.27434
2022-09-18T15:27:10.484Z,27.24303
2022-09-18T15:32:11.427Z,27.26139
2022-09-18T15:37:12.409Z,27.14763
2022-09-18T15:42:13.601Z,27.31857
2022-09-18T15:47:14.474Z,27.3964
2022-09-18T15:52:15.447Z,27.54673
2022-09-18T15:57:16.347Z,27.60496
2022-09-18T16:02:17.432Z,27.55595
2022-09-18T16:07:18.406Z,27.76617
2022-09-18T16:12:19.415Z,27.726
2022-09-18T16:17:20.329Z,27.6173
2022-09-18T16:22:21.242Z,27.64857
2022-09-18T16:27:22.170Z,27.79452
2022-09-18T16:32:23.077Z,27.98828
2022-09-18T16:37:24.009Z,28.30571
2022-09-18T16:42:25.041Z,28.49673
2022-09-18T16:47:25.951Z,28.5337
2022-09-18T16:52:26.913Z,28.72895
2022-09-18T16:57:28.139Z,28.79217
2022-09-18T17:02:29.146Z,28.9169
2022-09-18T17:07:30.162Z,29.03473
2022-09-18T17:12:31.118Z,29.59844
2022-09-18T17:17:32.068Z,29.98739
2022-09-18T17:22:33.029Z,30.3405
2022-09-18T17:27:34.092Z,30.48207
2022-09-18T17:32:35.003Z,30.92246
2022-09-18T17:37:35.942Z,31.36924
2022-09-18T17:42:36.899Z,31.59058
2022-09-18T17:47:37.967Z,31.75132
2022-09-18T17:52:38.898Z,31.76008
2022-09-18T17:57:39.846Z,32.01517
2022-09-18T18:02:40.771Z,32.32258
2022-09-18T18:07:41.803Z,32.48869
2022-09-18T18:12:42.808Z,32.79127
2022-09-18T18:17:43.827Z,33.18497
2022-09-18T18:22:44.734Z,33.28401
2022-09-18T18:27:45.668Z,33.63876
2022-09-18T18:32:46.595Z,34.0326
2022-09-18T18:37:47.834Z,34.06506
2022-09-18T18:42:48.795Z,34.14675
2022-09-18T18:47:49.768Z,34.31303
2022-09-18T18:52:50.684Z,34.26978
2022-09-18T18:57:51.634Z,34.56096
2022-09-18T19:02:52.578Z,34.73966
2022-09-18T19:07:53.507Z,34.95351
2022-09-18T19:12:54.515Z,35.03667
2022-09-18T19:17:55.456Z,35.02982
2022-09-18T19:22:56.334Z,35.1195
2022-09-18T19:27:57.256Z,35.13021
2022-09-18T19:32:58.222Z,35.21338
2022-09-18T19:37:59.203Z,35.25498
2022-09-18T19:43:00.235Z,35.33891
2022-09-18T19:48:01.298Z,35.42152
2022-09-18T19:53:02.366Z,35.49451
2022-09-18T19:58:03.307Z,35.56576
2022-09-18T20:03:04.216Z,35.51331
2022-09-18T20:08:05.134Z,35.58961
2022-09-18T20:13:06.091Z,35.55455
2022-09-18T20:18:06.994Z,35.58354
2022-09-18T20:23:07.984Z,35.16188
2022-09-18T20:28:09.060Z,34.96132
2022-09-18T20:33:10.000Z,35.12861
2022-09-18T20:38:10.942Z,35.24218
2022-09-18T20:43:11.904Z,35.43056
2022-09-18T20:48:12.868Z,35.27271
2022-09-18T20:53:13.856Z,35.39096
2022-09-18T20:58:14.942Z,35.47999
2022-09-18T21:03:16.122Z,35.60319
2022-09-18T21:08:17.028Z,35.70309
2022-09-18T21:13:17.991Z,35.67374
2022-09-18T21:18:18.899Z,35.867
2022-09-18T21:28:23.440Z,35.83008
2022-09-18T21:33:24.404Z,35.8175
2022-09-18T21:38:25.325Z,35.64568
2022-09-18T21:43:26.308Z,36.0461
2022-09-18T21:48:27.235Z,35.86347
2022-09-18T21:53:28.736Z,35.88614
2022-09-18T21:58:29.676Z,35.86356
2022-09-18T22:03:30.656Z,36.00005
2022-09-18T22:08:31.561Z,36.18967
2022-09-18T22:13:32.515Z,36.43099
2022-09-18T22:18:33.468Z,36.58989
2022-09-18T22:23:34.420Z,36.68405
2022-09-18T22:28:35.348Z,36.81346
2022-09-18T22:33:36.278Z,36.96582
2022-09-18T22:38:37.204Z,36.98868
2022-09-18T22:43:38.152Z,36.9061
2022-09-18T22:48:39.041Z,37.02849
2022-09-18T22:58:45.430Z,36.85002
2022-09-18T23:03:46.445Z,36.80303
2022-09-18T23:08:47.404Z,36.96206
2022-09-18T23:13:48.647Z,37.07267
2022-09-18T23:18:49.580Z,36.78429
2022-09-18T23:23:50.550Z,36.79662
2022-09-18T23:28:51.474Z,36.92539
2022-09-18T23:33:52.405Z,36.97847
2022-09-18T23:38:53.330Z,36.90843
2022-09-18T23:43:54.304Z,36.84942
2022-09-18T23:48:55.303Z,36.94377
2022-09-18T23:53:56.226Z,37.07304
2022-09-18T23:58:57.165Z,36.94334
